createdAt,value
2022-08-26T00:02:35.345Z,6.30
2022-08-26T00:05:37.827Z,12.60
2022-08-26T00:08:40.823Z,6.90
2022-08-26T00:11:45.429Z,4.70
2022-08-26T00:14:47.625Z,5.15
2022-08-26T00:17:51.211Z,7.97
2022-08-26T00:20:55.130Z,5.93
2022-08-26T00:23:57.498Z,3.05
2022-08-26T00:26:59.638Z,3.55
2022-08-26T00:30:05.906Z,4.22
2022-08-26T00:33:08.352Z,4.43
2022-08-26T00:36:19.857Z,4.55
2022-08-26T00:39:22.994Z,4.18
2022-08-26T00:42:25.107Z,3.85
2022-08-26T00:45:38.204Z,7.60
2022-08-26T00:48:44.006Z,4.65
2022-08-26T00:51:53.593Z,5.63
2022-08-26T00:55:07.538Z,6.55
2022-08-26T00:58:09.631Z,7.13
2022-08-26T01:01:12.184Z,4.88
2022-08-26T01:04:19.534Z,8.13
2022-08-26T01:07:21.918Z,8.25
2022-08-26T01:10:29.901Z,5.00
2022-08-26T01:13:32.793Z,4.50
2022-08-26T01:16:37.749Z,6.15
2022-08-26T01:20:12.632Z,7.57
2022-08-26T01:23:16.262Z,9.27
2022-08-26T01:26:34.088Z,8.30
2022-08-26T01:29:40.719Z,8.90
2022-08-26T01:32:44.200Z,5.72
2022-08-26T01:35:48.140Z,5.78
2022-08-26T01:38:51.392Z,5.47
2022-08-26T01:41:57.132Z,5.70
2022-08-26T01:45:11.599Z,4.97
2022-08-26T01:48:21.084Z,11.85
2022-08-26T01:51:26.562Z,12.88
2022-08-26T01:54:28.799Z,4.95
2022-08-26T01:57:31.883Z,3.97
2022-08-26T02:00:36.096Z,10.48
2022-08-26T02:03:53.776Z,6.18
2022-08-26T02:06:57.160Z,8.68
2022-08-26T02:10:01.423Z,5.32
2022-08-26T02:13:09.615Z,5.43
2022-08-26T02:16:15.622Z,5.05
2022-08-26T02:19:23.999Z,10.68
2022-08-26T02:22:26.895Z,9.10
2022-08-26T02:25:40.446Z,7.30
2022-08-26T02:28:51.457Z,8.80
2022-08-26T02:31:55.925Z,9.00
2022-08-26T02:34:58.133Z,4.30
2022-08-26T02:38:00.657Z,3.10
2022-08-26T02:41:03.893Z,7.38
2022-08-26T02:44:07.318Z,3.83
2022-08-26T02:47:09.457Z,10.85
2022-08-26T02:50:11.754Z,9.80
2022-08-26T02:53:14.309Z,3.97
2022-08-26T02:56:17.061Z,5.22
2022-08-26T02:59:19.127Z,6.93
2022-08-26T03:02:27.664Z,8.15
2022-08-26T03:05:30.574Z,4.18
2022-08-26T03:08:32.613Z,9.40
2022-08-26T03:11:36.626Z,12.73
2022-08-26T03:14:38.902Z,10.48
2022-08-26T03:17:41.033Z,4.13
2022-08-26T03:20:44.003Z,5.60
2022-08-26T03:23:46.815Z,4.57
2022-08-26T03:26:52.956Z,6.47
2022-08-26T03:30:14.086Z,4.63
2022-08-26T03:33:17.124Z,4.75
2022-08-26T03:36:19.883Z,4.03
2022-08-26T03:39:21.913Z,10.13
2022-08-26T03:42:26.155Z,13.18
2022-08-26T03:45:28.286Z,7.72
2022-08-26T03:48:30.388Z,8.60
2022-08-26T03:51:33.620Z,10.90
2022-08-26T03:54:36.545Z,4.00
2022-08-26T03:57:38.658Z,8.32
2022-08-26T04:00:40.746Z,11.40
2022-08-26T04:03:57.789Z,6.50
2022-08-26T04:07:02.203Z,6.78
2022-08-26T04:10:04.581Z,10.68
2022-08-26T04:13:06.932Z,8.65
2022-08-26T04:16:09.205Z,13.75
2022-08-26T04:19:14.548Z,12.75
2022-08-26T04:22:24.096Z,8.82
2022-08-26T04:25:27.043Z,10.55
2022-08-26T04:28:29.935Z,12.75
2022-08-26T04:31:34.715Z,20.30
2022-08-26T04:34:37.895Z,18.63
2022-08-26T04:37:44.069Z,15.73
2022-08-26T04:40:47.158Z,7.05
2022-08-26T04:43:50.433Z,14.43
2022-08-26T04:46:54.903Z,5.10
2022-08-26T04:49:57.764Z,6.68
2022-08-26T04:53:00.400Z,8.23
2022-08-26T04:56:02.744Z,7.38
2022-08-26T04:59:16.716Z,7.80
2022-08-26T05:02:19.960Z,5.88
2022-08-26T05:05:22.537Z,11.35
2022-08-26T05:08:25.199Z,8.75
2022-08-26T05:11:27.906Z,12.65
2022-08-26T05:14:31.242Z,11.98
2022-08-26T05:17:33.490Z,6.45
2022-08-26T05:20:43.915Z,13.07
2022-08-26T05:23:48.405Z,9.98
2022-08-26T05:26:51.588Z,7.18
2022-08-26T05:29:57.566Z,5.30
2022-08-26T05:32:59.877Z,4.07
2022-08-26T05:36:07.979Z,5.63
2022-08-26T05:39:11.264Z,7.15
2022-08-26T05:42:13.469Z,11.70
2022-08-26T05:45:15.739Z,5.72
2022-08-26T05:48:22.715Z,10.75
2022-08-26T05:51:26.765Z,5.50
2022-08-26T05:54:34.941Z,11.95
2022-08-26T05:57:42.244Z,5.05
2022-08-26T06:03:51.936Z,14.27
2022-08-26T06:06:53.994Z,5.05
2022-08-26T06:10:09.939Z,10.07
2022-08-26T06:13:20.690Z,4.75
2022-08-26T06:16:24.671Z,8.13
2022-08-26T06:19:33.155Z,10.40
2022-08-26T06:22:55.146Z,8.57
2022-08-26T06:25:57.894Z,7.18
2022-08-26T06:29:00.520Z,12.35
2022-08-26T06:32:05.358Z,7.90
2022-08-26T06:35:12.252Z,9.57
2022-08-26T06:38:15.739Z,8.13
2022-08-26T06:41:20.258Z,8.48
2022-08-26T06:44:22.667Z,7.40
2022-08-26T06:47:24.872Z,11.20
2022-08-26T06:50:26.963Z,13.52
2022-08-26T06:53:29.566Z,5.72
2022-08-26T06:56:40.843Z,10.35
2022-08-26T06:59:42.925Z,6.75
2022-08-26T07:02:47.001Z,5.55
2022-08-26T07:05:49.650Z,15.27
2022-08-26T07:09:05.059Z,6.93
2022-08-26T07:12:07.472Z,10.88
2022-08-26T07:15:10.411Z,12.55
2022-08-26T07:18:12.460Z,7.68
2022-08-26T07:21:18.323Z,6.93
2022-08-26T07:24:20.967Z,11.32
2022-08-26T07:27:23.370Z,14.05
2022-08-26T07:30:26.807Z,13.48
2022-08-26T07:33:29.897Z,11.50
2022-08-26T07:36:33.153Z,9.15
2022-08-26T07:39:35.503Z,14.30
2022-08-26T07:42:40.158Z,5.10
2022-08-26T07:45:42.819Z,9.30
2022-08-26T07:48:46.141Z,7.18
2022-08-26T07:51:49.876Z,9.90
2022-08-26T07:54:51.859Z,12.60
2022-08-26T07:57:54.129Z,11.35
2022-08-26T08:00:56.623Z,10.50
2022-08-26T08:03:59.060Z,9.35
2022-08-26T08:07:01.125Z,7.63
2022-08-26T08:10:09.747Z,9.50
2022-08-26T08:13:14.616Z,9.13
2022-08-26T08:16:17.093Z,6.57
2022-08-26T08:19:19.204Z,9.45
2022-08-26T08:22:23.766Z,6.40
2022-08-26T08:25:26.961Z,12.00
2022-08-26T08:28:29.184Z,13.70
2022-08-26T08:34:57.706Z,7.60
2022-08-26T08:37:59.634Z,12.40
2022-08-26T08:41:04.215Z,13.05
2022-08-26T08:44:20.188Z,10.13
2022-08-26T08:47:36.842Z,8.55
2022-08-26T08:50:50.827Z,6.05
2022-08-26T08:53:55.486Z,8.57
2022-08-26T08:57:16.556Z,13.07
2022-08-26T09:00:19.888Z,11.20
2022-08-26T09:03:35.462Z,8.93
2022-08-26T09:06:37.550Z,6.75
2022-08-26T09:09:51.631Z,5.28
2022-08-26T09:12:54.578Z,20.77
2022-08-26T09:16:25.021Z,7.03
2022-08-26T09:19:52.731Z,18.63
2022-08-26T09:22:57.559Z,9.20
2022-08-26T09:26:25.879Z,11.18
2022-08-26T09:29:40.990Z,17.63
2022-08-26T09:32:44.554Z,18.33
2022-08-26T09:36:24.841Z,7.22
2022-08-26T09:39:39.099Z,9.00
2022-08-26T09:42:41.123Z,5.93
2022-08-26T09:45:50.642Z,10.80
2022-08-26T09:48:54.219Z,9.02
2022-08-26T09:52:15.655Z,8.27
2022-08-26T09:55:23.813Z,14.77
2022-08-26T09:58:41.996Z,8.57
2022-08-26T10:01:44.896Z,9.35
2022-08-26T10:04:56.952Z,10.75
2022-08-26T10:07:59.763Z,21.10
2022-08-26T10:11:16.339Z,8.45
2022-08-26T10:14:25.649Z,3.58
2022-08-26T10:17:34.384Z,16.35
2022-08-26T10:20:50.007Z,14.07
2022-08-26T10:23:57.496Z,13.48
2022-08-26T10:27:27.567Z,8.50
2022-08-26T10:30:38.213Z,6.47
2022-08-26T10:33:40.465Z,12.18
2022-08-26T10:37:14.459Z,15.75
2022-08-26T10:40:24.829Z,7.15
2022-08-26T10:43:36.128Z,6.70
2022-08-26T10:46:50.229Z,8.55
2022-08-26T10:49:57.597Z,10.18
2022-08-26T10:53:08.848Z,10.35
2022-08-26T11:00:28.993Z,12.00
2022-08-26T11:03:43.919Z,13.75
2022-08-26T11:06:46.696Z,7.85
2022-08-26T11:09:49.958Z,17.02
2022-08-26T11:13:07.345Z,15.73
2022-08-26T11:16:09.715Z,17.42
2022-08-26T11:19:45.575Z,16.88
2022-08-26T11:22:55.317Z,16.85
2022-08-26T11:26:36.044Z,15.57
2022-08-26T11:30:08.454Z,13.35
2022-08-26T11:33:44.262Z,31.67
2022-08-26T11:36:46.376Z,31.65
2022-08-26T11:39:55.566Z,34.00
2022-08-26T11:43:05.844Z,20.77
2022-08-26T11:46:11.454Z,19.77
2022-08-26T11:49:14.851Z,25.98
2022-08-26T11:52:22.261Z,42.33
2022-08-26T11:55:24.344Z,43.53
2022-08-26T11:58:28.237Z,16.33
2022-08-26T12:01:33.686Z,36.10
2022-08-26T12:04:41.168Z,34.28
2022-08-26T12:07:43.391Z,33.42
2022-08-26T12:10:48.320Z,37.42
2022-08-26T12:14:00.218Z,29.25
2022-08-26T12:17:26.151Z,21.98
2022-08-26T12:20:46.026Z,32.03
2022-08-26T12:23:51.168Z,31.08
2022-08-26T12:27:14.634Z,24.38
2022-08-26T12:30:21.013Z,22.20
2022-08-26T12:33:23.432Z,34.53
2022-08-26T12:36:31.540Z,56.63
2022-08-26T12:42:42.139Z,25.58
2022-08-26T12:45:56.213Z,21.70
2022-08-26T12:49:01.374Z,27.13
2022-08-26T12:52:05.409Z,31.85
2022-08-26T12:55:20.630Z,34.97
2022-08-26T12:58:27.562Z,38.17
2022-08-26T13:01:39.287Z,26.85
2022-08-26T13:04:43.406Z,41.90
2022-08-26T13:08:08.963Z,30.40
2022-08-26T13:11:10.880Z,39.45
2022-08-26T13:14:23.726Z,30.60
2022-08-26T13:17:28.028Z,43.35
2022-08-26T13:20:30.607Z,30.98
2022-08-26T13:23:32.601Z,26.50
2022-08-26T13:26:35.619Z,27.83
2022-08-26T13:29:38.295Z,33.40
2022-08-26T13:32:41.206Z,43.40
2022-08-26T13:35:45.302Z,42.42
2022-08-26T13:38:48.328Z,32.33
2022-08-26T13:41:54.485Z,41.83
2022-08-26T13:44:58.190Z,30.95
2022-08-26T13:48:00.634Z,37.17
2022-08-26T13:51:03.250Z,37.30
2022-08-26T13:54:10.331Z,33.28
2022-08-26T13:57:12.385Z,30.33
2022-08-26T14:00:15.495Z,30.35
2022-08-26T14:03:18.231Z,28.27
2022-08-26T14:06:21.355Z,23.95
2022-08-26T14:09:23.335Z,29.98
2022-08-26T14:12:25.458Z,28.63
2022-08-26T14:15:28.030Z,39.08
2022-08-26T14:18:41.515Z,67.10
2022-08-26T14:21:44.549Z,55.45
2022-08-26T14:24:46.695Z,36.25
2022-08-26T14:27:55.486Z,30.50
2022-08-26T14:30:58.524Z,34.05
2022-08-26T14:34:05.074Z,44.45
2022-08-26T14:37:08.182Z,34.80
2022-08-26T14:40:14.031Z,40.83
2022-08-26T14:43:16.311Z,40.65
2022-08-26T14:46:18.634Z,40.42
2022-08-26T14:49:22.269Z,53.97
2022-08-26T14:52:24.417Z,38.28
2022-08-26T14:55:27.611Z,32.78
2022-08-26T14:58:34.813Z,30.52
2022-08-26T15:01:37.748Z,42.55
2022-08-26T15:04:40.760Z,29.90
2022-08-26T15:07:42.725Z,29.13
2022-08-26T15:10:44.940Z,46.45
2022-08-26T15:13:47.536Z,51.83
2022-08-26T15:16:52.375Z,32.03
2022-08-26T15:19:54.635Z,42.40
2022-08-26T15:22:57.560Z,41.65
2022-08-26T15:26:04.425Z,33.63
2022-08-26T15:29:06.747Z,43.85
2022-08-26T15:32:09.046Z,37.28
2022-08-26T15:35:11.219Z,43.65
2022-08-26T15:38:13.677Z,34.95
2022-08-26T15:41:15.670Z,46.55
2022-08-26T15:44:17.837Z,49.63
2022-08-26T15:47:20.070Z,36.13
2022-08-26T15:50:22.286Z,31.40
2022-08-26T15:53:25.426Z,29.60
2022-08-26T15:56:33.734Z,35.70
2022-08-26T15:59:36.695Z,49.20
2022-08-26T16:02:38.841Z,38.08
2022-08-26T16:05:43.625Z,37.33
2022-08-26T16:08:46.339Z,51.67
2022-08-26T16:11:48.401Z,38.83
2022-08-26T16:14:54.134Z,46.17
2022-08-26T16:17:59.632Z,42.28
2022-08-26T16:21:13.309Z,55.92
2022-08-26T16:24:16.986Z,30.80
2022-08-26T16:27:19.486Z,33.72
2022-08-26T16:30:25.238Z,49.75
2022-08-26T16:33:31.714Z,51.00
2022-08-26T16:36:35.089Z,19.80
2022-08-26T16:39:40.212Z,33.92
2022-08-26T16:42:48.957Z,28.08
2022-08-26T16:45:51.320Z,37.35
2022-08-26T16:48:58.072Z,35.72
2022-08-26T16:52:00.387Z,36.33
2022-08-26T16:55:02.499Z,24.45
2022-08-26T16:58:04.848Z,32.22
2022-08-26T17:01:07.527Z,39.33
2022-08-26T17:04:09.717Z,31.70
2022-08-26T17:07:12.430Z,41.05
2022-08-26T17:10:14.505Z,52.00
2022-08-26T17:13:16.729Z,50.70
2022-08-26T17:16:37.355Z,36.67
2022-08-26T17:19:41.758Z,71.68
2022-08-26T17:22:51.420Z,160.55
2022-08-26T17:25:53.603Z,65.10
2022-08-26T17:28:55.715Z,36.63
2022-08-26T17:31:57.863Z,32.13
2022-08-26T17:35:00.764Z,82.85
2022-08-26T17:38:03.021Z,78.43
2022-08-26T17:41:10.142Z,49.50
2022-08-26T17:44:12.567Z,58.25
2022-08-26T17:47:15.114Z,45.08
2022-08-26T17:50:18.896Z,53.55
2022-08-26T17:53:22.089Z,39.22
2022-08-26T17:56:27.008Z,42.78
2022-08-26T17:59:30.465Z,45.92
2022-08-26T18:02:32.893Z,35.47
2022-08-26T18:05:35.212Z,34.63
2022-08-26T18:08:39.178Z,38.90
2022-08-26T18:11:41.391Z,56.90
2022-08-26T18:14:44.238Z,48.25
2022-08-26T18:17:46.815Z,41.13
2022-08-26T18:20:51.998Z,29.80
2022-08-26T18:24:01.502Z,49.28
2022-08-26T18:27:04.019Z,36.50
2022-08-26T18:30:13.427Z,30.08
2022-08-26T18:33:19.524Z,46.83
2022-08-26T18:36:24.869Z,52.30
2022-08-26T18:39:26.860Z,41.92
2022-08-26T18:42:29.741Z,50.17
2022-08-26T18:45:31.775Z,51.42
2022-08-26T18:48:37.095Z,37.55
2022-08-26T18:51:39.545Z,43.95
2022-08-26T18:54:41.663Z,35.28
2022-08-26T18:57:43.702Z,37.80
2022-08-26T19:00:46.155Z,39.97
2022-08-26T19:03:49.469Z,32.47
2022-08-26T19:06:52.696Z,33.63
2022-08-26T19:09:54.839Z,37.08
2022-08-26T19:13:00.700Z,26.42
2022-08-26T19:16:04.991Z,34.50
2022-08-26T19:19:07.422Z,53.25
2022-08-26T19:22:09.576Z,33.10
2022-08-26T19:25:12.677Z,31.83
2022-08-26T19:28:16.568Z,49.72
2022-08-26T19:31:18.691Z,53.58
2022-08-26T19:34:21.132Z,36.63
2022-08-26T19:37:23.809Z,52.45
2022-08-26T19:40:26.001Z,30.40
2022-08-26T19:43:28.351Z,30.95
2022-08-26T19:46:36.556Z,34.90
2022-08-26T19:49:38.757Z,33.13
2022-08-26T19:52:42.175Z,43.45
2022-08-26T19:55:44.345Z,36.95
2022-08-26T19:58:46.641Z,28.13
2022-08-26T20:01:52.948Z,31.50
2022-08-26T20:05:06.141Z,29.73
2022-08-26T20:08:08.360Z,46.28
2022-08-26T20:11:23.454Z,32.38
2022-08-26T20:14:27.039Z,33.42
2022-08-26T20:17:29.158Z,25.30
2022-08-26T20:20:49.703Z,32.17
2022-08-26T20:24:02.244Z,42.30
2022-08-26T20:27:07.945Z,34.28
2022-08-26T20:30:11.065Z,41.83
2022-08-26T20:33:13.095Z,22.15
2022-08-26T20:36:15.724Z,50.95
2022-08-26T20:39:21.132Z,33.08
2022-08-26T20:42:23.195Z,29.20
2022-08-26T20:45:26.077Z,34.58
2022-08-26T20:48:28.301Z,25.35
2022-08-26T20:51:30.382Z,32.85
2022-08-26T20:54:32.655Z,38.20
2022-08-26T20:57:34.881Z,30.60
2022-08-26T21:00:38.838Z,33.30
2022-08-26T21:03:41.127Z,37.03
2022-08-26T21:06:47.270Z,28.00
2022-08-26T21:09:55.103Z,32.03
2022-08-26T21:12:58.017Z,31.20
2022-08-26T21:16:00.167Z,35.00
2022-08-26T21:19:04.225Z,32.58
2022-08-26T21:22:06.446Z,50.00
2022-08-26T21:25:09.246Z,28.08
2022-08-26T21:28:11.629Z,32.28
2022-08-26T21:31:17.237Z,44.60
2022-08-26T21:34:19.797Z,38.90
2022-08-26T21:37:21.929Z,30.05
2022-08-26T21:40:24.741Z,36.45
2022-08-26T21:43:35.564Z,26.88
2022-08-26T21:46:37.944Z,34.75
2022-08-26T21:49:40.029Z,33.97
2022-08-26T21:52:42.061Z,24.67
2022-08-26T21:55:46.030Z,40.40
2022-08-26T21:58:48.355Z,30.60
2022-08-26T22:01:51.413Z,36.63
2022-08-26T22:04:54.147Z,40.28
2022-08-26T22:07:56.489Z,29.30
2022-08-26T22:11:01.185Z,28.27
2022-08-26T22:14:03.310Z,26.63
2022-08-26T22:17:06.084Z,41.78
2022-08-26T22:20:16.726Z,35.63
2022-08-26T22:23:19.072Z,34.72
2022-08-26T22:26:25.515Z,26.30
2022-08-26T22:29:27.916Z,26.80
2022-08-26T22:32:30.012Z,24.33
2022-08-26T22:35:32.161Z,27.45
2022-08-26T22:38:34.790Z,45.83
2022-08-26T22:41:37.091Z,39.17
2022-08-26T22:44:39.361Z,28.55
2022-08-26T22:47:42.083Z,30.55
2022-08-26T22:50:46.025Z,35.15
2022-08-26T22:53:48.137Z,37.13
2022-08-26T22:56:50.312Z,31.80
2022-08-26T22:59:52.421Z,36.35
2022-08-26T23:02:55.033Z,39.65
2022-08-26T23:05:57.230Z,28.67
2022-08-26T23:08:59.362Z,43.17
2022-08-26T23:12:01.728Z,35.47
2022-08-26T23:15:10.077Z,22.75
2022-08-26T23:21:15.479Z,36.28
2022-08-26T23:24:18.523Z,39.58
2022-08-26T23:27:20.644Z,27.33
2022-08-26T23:30:26.541Z,21.15
2022-08-26T23:33:48.558Z,34.15
2022-08-26T23:36:51.254Z,43.10
2022-08-26T23:39:54.865Z,41.08
2022-08-26T23:42:58.775Z,39.60
2022-08-26T23:46:00.908Z,15.68
2022-08-26T23:49:04.284Z,33.42
2022-08-26T23:52:25.846Z,29.67
2022-08-26T23:55:28.174Z,29.25
2022-08-26T23:58:30.291Z,32.75
